Detalii statie COMAGRA BEREGSAU [00001994]

Toti senzorii

Date Temperatura solului [C]Precipitatii [mm]Voltaj baterie [mV]Leaf Wetness [Min]HC Air temperature [C]HC Relative humidity [%]Punctul de roua [C]
medieminmaxsumaultimatimpmedieminmaxmediemediemin
2019-10-19 23:00:00 15.6 15.5 15.9 0 6806 13.8 11.9 15.63 87.6 11.5 11
2019-10-20 00:00:00 15.3 15.2 15.5 0 6806 11.23 9.96 12.32 100 11.1 9.9
2019-10-20 01:00:00 15 14.9 15.2 0 6786 9.52 9.14 9.95 100 9.4 9.1
2019-10-20 02:00:00 14.6 14.5 14.9 0 6786 9.95 9.06 10.76 100 9.9 9
2019-10-20 03:00:00 14.4 14.2 14.6 0 6776 9.95 9.61 10.3 100 9.9 9.6
2019-10-20 04:00:00 14 13.9 14.3 0 6766 9.02 8.79 9.38 100 8.9 8.7
2019-10-20 05:00:00 13.8 13.7 14 0 6766 9.48 8.83 9.91 100 9.4 8.8
2019-10-20 06:00:00 13.6 13.6 13.7 0 6748 9.56 9.43 9.91 100 9.5 9.4
2019-10-20 07:00:00 13.4 13.3 13.6 0 6748 9.32 9.13 9.53 100 9.2 9.1
2019-10-20 08:00:00 13.2 13.1 13.3 0 6738 9.55 9.2 9.85 100 9.5 9.2
2019-10-20 09:00:00 13 12.8 13.2 0 6766 9.77 9.2 10.96 100 9.7 9.2
2019-10-20 10:00:00 12.9 12.8 13.1 0 6904 13.07 11.28 14.81 100 13 11.2
2019-10-20 11:00:00 12.9 12.8 13.1 0 6932 16.18 15.09 17.44 94.62 15.2 13.9
2019-10-20 12:00:00 13.1 13 13.3 0 6982 18.86 17.56 20.57 71.45 13.3 12.5
2019-10-20 13:00:00 13.2 13.1 13.5 0 7020 22.51 20.99 23.52 54.59 12.7 12.5
2019-10-20 14:00:00 13.7 13.5 14 0 7196 24.74 23.68 25.43 48.62 13 12.6
2019-10-20 15:00:00 14.5 14 15.2 0 7196 25.96 25.35 26.53 45.02 12.9 12.5
2019-10-20 16:00:00 15.4 15.1 15.9 0 7186 26.37 26.09 26.59 43.62 12.8 12.3
2019-10-20 17:00:00 16.2 16 16.5 0 7186 26.34 26.05 26.61 43.74 12.8 12.5
2019-10-20 18:00:00 16.7 16.6 16.9 0 7176 25.5 24.46 26.08 44.38 12.2 11.7
2019-10-20 19:00:00 16.8 16.7 16.9 0 6854 22.06 20.05 24.2 51.78 11.4 11.2
2019-10-20 20:00:00 16.6 16.5 16.7 0 6826 17.41 15.4 21.13 66.7 10.9 10
2019-10-20 21:00:00 16.2 16.1 16.4 0 6816 14.64 13.1 15.64 77.05 10.5 8.4
2019-10-20 22:00:00 15.9 15.7 16.1 0 6796 12.81 12.12 13.57 77.33 8.8 7.4
2019-10-20 23:00:00 15.5 15.3 15.8 0 6796 11.69 11.17 12.62 82.58 8.6 6.7
2019-10-21 00:00:00 15.1 15 15.3 0 6796 10.91 9.96 11.64 95.05 10 9.6
2019-10-21 01:00:00 14.8 14.7 15 0 6776 10.06 9.83 10.4 99.94 10 9.7
2019-10-21 02:00:00 14.5 14.3 14.7 0 6776 9.85 8.92 10.6 100 9.8 8.9
2019-10-21 03:00:00 14.2 14 14.4 0 6766 8.55 8.07 9.09 100 8.5 8
2019-10-21 04:00:00 13.9 13.8 14.1 0 6748 7.87 7.63 8.24 100 7.8 7.6
2019-10-21 05:00:00 13.6 13.5 14 0 6756 8.56 7.85 9.08 100 8.5 7.8
2019-10-21 06:00:00 13.4 13.2 13.6 0 6748 8.78 8.45 9.1 100 8.7 8.4
2019-10-21 07:00:00 13.2 13.1 13.4 0 6728 8.37 7.99 8.58 100 8.3 7.9
2019-10-21 08:00:00 12.9 12.8 13.2 0 6718 7.9 7.09 8.46 100 7.8 7
2019-10-21 09:00:00 12.7 12.6 12.9 0 6738 8.79 8.14 9.86 100 8.7 8.1
2019-10-21 10:00:00 12.6 12.5 12.7 0 6796 11.36 10.03 12.98 100 11.3 10
2019-10-21 11:00:00 12.5 12.5 12.8 0 6854 15.44 13.29 18.34 96.38 14.7 13.2
2019-10-21 12:00:00 12.7 12.6 12.8 0 6952 20.28 18.32 21.86 67.09 13.8 13.3
2019-10-21 13:00:00 12.9 12.7 13.2 0 7000 23.07 21.98 23.9 54.81 13.3 13.2
2019-10-21 14:00:00 13.4 13.2 13.7 0 7186 25.5 23.91 26.46 48.33 13.5 13.2
2019-10-21 15:00:00 14.3 13.8 15 0 7186 26.32 25.76 26.88 45.65 13.4 13.2
2019-10-21 16:00:00 15.3 14.9 15.9 0 7186 26.73 26.36 27.34 43.83 13.1 12.8
2019-10-21 17:00:00 16.2 15.9 16.4 0 7186 27.19 26.56 27.67 41.36 12.7 12.4
2019-10-21 18:00:00 16.6 16.5 16.7 0 7166 25.54 23.25 27.71 46.01 12.7 12.1
2019-10-21 19:00:00 16.7 16.7 16.9 0 6854 20.47 18.05 22.84 59.09 11.9 11.3
2019-10-21 20:00:00 16.5 16.3 16.8 0 6826 16.53 15.51 17.86 72.3 11.3 11.2
2019-10-21 21:00:00 16.2 16.1 16.4 0 6806 16.59 15.16 18.81 67.92 10.4 8.8